Accueil
METAR-TAF:

METAR-TAF

Aéroports :

Baker City, Oregon, États-Unis

latitude: 44-50-14N, longitude: 117-48-33W, altitude: 1028 m

Observation

Le bulletin a été fait il y a 10 minutes, à 21:53 UTC
Vent 5 kt de est
Température -3°C
Humidité 74%
Pression 1034 hPa
Visibilité: 16.1 km
Ciel couvert à une hauteur de 1100 ft

METAR: KBKE 122153Z AUTO 09005KT 10SM OVC011 M03/M07 A3053 RMK AO2 SLP386 T10331072

Heure: 14:03 (22:03 UTC)

Prévision

Le bulletin a été fait il y a 1 heure et 11 minutes, à 20:52 UTC
Prévision valable du 12 à 21 UTC au 13 à 18 UTC
Vent 3 kt de direction variable
Visibilité: 10 km
Ciel couvert à une hauteur de 1000 ft
A partir de 13 à 1100 UTC
Vent 3 kt de direction variable
Visibilité: 9.7 km
Ciel couvert à une hauteur de 800 ft
brume

TAF: KBKE 122052Z 1221/1318 VRB03KT P6SM OVC010 FM131100 VRB03KT 6SM BR OVC008

Observations et prévisions météorologiques de plus de 4000 aéroports (messages METAR et TAF).

Les stations disponibles sont représentées par des disques jaunes et rouges sur la carte.

Passer la souris dessus pour voir le nom de la station.

Cliquer dessus pour voir les observations et prévisions météorologiques.

Pour changer de carte: cliquez sur les boutons verts avec une croix noire pour zoomer, sur le bouton vert avec un tiret pour effectuer un zoom arrière, ou sur les flèches vertes pour les cartes adjacentes.


METAR-TAF: